| time (UTC) | temp C | wind direction | speed KPH | gust KPH | rain 1hr cm | rain 24hr cm | rain mn cm | humidity % | barometer mb |
| 20260509212309 | 30 | 86 | 3.2 | 11.3 | 0.00 | 0.00 | 0.00 | 48 | 1006.3 |
| 20260509211300 | 30 | 93 | 3.2 | 11.3 | 0.00 | 0.00 | 0.00 | 48 | 1006.4 |
| 20260509210300 | 30 | 69 | 1.6 | 9.7 | 0.00 | 0.00 | 0.00 | 48 | 1006.6 |
| 20260509205306 | 30 | 206 | 1.6 | 8.0 | 0.00 | 0.00 | 0.00 | 51 | 1006.7 |
| 20260509204300 | 30 | 84 | 3.2 | 6.4 | 0.00 | 0.00 | 0.00 | 49 | 1006.9 |
| 20260509203302 | 30 | 63 | 3.2 | 9.7 | 0.00 | 0.00 | 0.00 | 49 | 1007.1 |
| 20260509202300 | 30 | 288 | 1.6 | 9.7 | 0.00 | 0.00 | 0.00 | 51 | 1007.2 |
| 20260509201300 | 30 | 104 | 1.6 | 6.4 | 0.00 | 0.00 | 0.00 | 49 | 1007.3 |
| 20260509200302 | 30 | 23 | 1.6 | 11.3 | 0.00 | 0.00 | 0.00 | 52 | 1007.4 |
| 20260509195717 | 30 | 0 | 0.0 | 4.8 | 0.00 | 0.00 | 0.00 | 50 | 1007.6 |
| 20260509195403 | 30 | 249 | 1.6 | 4.8 | 0.00 | 0.00 | 0.00 | 51 | 1007.4 |
| 20260509193753 | 30 | 90 | 1.6 | 6.4 | 0.00 | 0.00 | 0.00 | 52 | 1007.7 |
| 20260509192258 | 29 | 80 | 1.6 | 8.0 | 0.00 | 0.00 | 0.00 | 54 | 1007.8 |
| 20260509191751 | 29 | 91 | 3.2 | 8.0 | 0.00 | 0.00 | 0.00 | 53 | 1007.9 |
| 20260509190259 | 29 | 313 | 3.2 | 9.7 | 0.00 | 0.00 | 0.00 | 53 | 1007.9 |
| 20260509185313 | 29 | 189 | 1.6 | 8.0 | 0.00 | 0.00 | 0.00 | 54 | 1008.0 |
| 20260509184300 | 28 | 214 | 1.6 | 11.3 | 0.00 | 0.00 | 0.00 | 54 | 1008.2 |
| 20260509183308 | 28 | 71 | 3.2 | 9.7 | 0.00 | 0.00 | 0.00 | 55 | 1008.3 |
| 20260509182308 | 28 | 346 | 4.8 | 9.7 | 0.00 | 0.00 | 0.00 | 54 | 1008.3 |
| 20260509181258 | 28 | 178 | 3.2 | 11.3 | 0.00 | 0.00 | 0.00 | 55 | 1008.5 |
| 20260509180258 | 27 | 340 | 4.8 | 12.9 | 0.00 | 0.00 | 0.00 | 56 | 1008.5 |
| 20260509175259 | 27 | 284 | 6.4 | 12.9 | 0.00 | 0.00 | 0.00 | 56 | 1008.6 |
| 20260509174300 | 27 | 313 | 8.0 | 16.1 | 0.00 | 0.00 | 0.00 | 56 | 1008.6 |
| 20260509173301 | 27 | 310 | 6.4 | 11.3 | 0.00 | 0.00 | 0.00 | 58 | 1008.7 |
| 20260509172300 | 27 | 286 | 8.0 | 14.5 | 0.00 | 0.00 | 0.00 | 59 | 1008.7 |
| 20260509171259 | 26 | 288 | 8.0 | 16.1 | 0.00 | 0.00 | 0.00 | 59 | 1008.7 |
| 20260509170254 | 26 | 340 | 9.7 | 16.1 | 0.00 | 0.00 | 0.00 | 60 | 1008.9 |
| 20260509165253 | 26 | 294 | 9.7 | 17.7 | 0.00 | 0.00 | 0.00 | 61 | 1009.0 |
| 20260509164253 | 26 | 280 | 8.0 | 17.7 | 0.00 | 0.00 | 0.00 | 59 | 1009.1 |
| 20260509163254 | 26 | 301 | 8.0 | 17.7 | 0.00 | 0.00 | 0.00 | 61 | 1009.2 |
| 20260509162253 | 25 | 303 | 11.3 | 19.3 | 0.00 | 0.00 | 0.00 | 63 | 1009.2 |
| 20260509161253 | 25 | 342 | 9.7 | 19.3 | 0.00 | 0.00 | 0.00 | 62 | 1009.3 |
| 20260509160733 | 25 | 279 | 12.9 | 22.5 | 0.00 | 0.00 | 0.00 | 64 | 1009.1 |
| 20260509155254 | 25 | 292 | 12.9 | 19.3 | 0.00 | 0.00 | 0.00 | 64 | 1008.9 |
| 20260509154256 | 24 | 307 | 14.5 | 19.3 | 0.00 | 0.00 | 0.00 | 64 | 1008.9 |
| 20260509153248 | 24 | 298 | 11.3 | 22.5 | 0.00 | 0.00 | 0.00 | 66 | 1008.9 |
| 20260509152248 | 23 | 324 | 12.9 | 22.5 | 0.00 | 0.00 | 0.00 | 67 | 1008.9 |
| 20260509151248 | 23 | 344 | 11.3 | 22.5 | 0.00 | 0.00 | 0.00 | 68 | 1008.9 |
| 20260509150248 | 22 | 318 | 12.9 | 20.9 | 0.00 | 0.00 | 0.00 | 73 | 1009.0 |
| 20260509145248 | 22 | 320 | 9.7 | 20.9 | 0.00 | 0.00 | 0.00 | 73 | 1009.2 |
| 20260509143247 | 21 | 271 | 9.7 | 16.1 | 0.00 | 0.00 | 0.00 | 81 | 1009.3 |
| 20260509142246 | 21 | 279 | 8.0 | 16.1 | 0.00 | 0.00 | 0.00 | 81 | 1009.3 |
| 20260509141247 | 21 | 273 | 8.0 | 14.5 | 0.00 | 0.00 | 0.00 | 83 | 1009.3 |
| 20260509140241 | 21 | 284 | 9.7 | 14.5 | 0.00 | 0.00 | 0.00 | 82 | 1009.3 |
| 20260509135244 | 21 | 284 | 9.7 | 16.1 | 0.00 | 0.00 | 0.00 | 83 | 1009.3 |
| 20260509134242 | 20 | 281 | 11.3 | 16.1 | 0.00 | 0.00 | 0.00 | 83 | 1009.3 |
| 20260509133731 | 20 | 292 | 8.0 | 16.1 | 0.00 | 0.00 | 0.00 | 84 | 1009.2 |
| 20260509132723 | 20 | 287 | 8.0 | 16.1 | 0.00 | 0.00 | 0.00 | 84 | 1009.2 |
| 20260509131241 | 20 | 271 | 8.0 | 12.9 | 0.00 | 0.00 | 0.00 | 84 | 1009.0 |
| 20260509130245 | 19 | 301 | 6.4 | 12.9 | 0.00 | 0.00 | 0.00 | 84 | 1009.1 |
| 20260509125242 | 19 | 328 | 9.7 | 16.1 | 0.00 | 0.00 | 0.00 | 85 | 1008.9 |
| 20260509124242 | 19 | 298 | 8.0 | 14.5 | 0.00 | 0.00 | 0.00 | 85 | 1009.0 |
| 20260509123235 | 18 | 302 | 6.4 | 11.3 | 0.00 | 0.03 | 0.00 | 85 | 1009.0 |
| 20260509122639 | 18 | 321 | 6.4 | 12.9 | 0.00 | 0.05 | 0.00 | 84 | 1008.9 |
| 20260509122317 | 18 | 298 | 6.4 | 14.5 | 0.00 | 0.05 | 0.00 | 85 | 1008.9 |
| 20260509120237 | 18 | 326 | 6.4 | 12.9 | 0.00 | 0.08 | 0.00 | 84 | 1008.7 |
| 20260509115234 | 18 | 299 | 4.8 | 8.0 | 0.00 | 0.08 | 0.00 | 84 | 1008.7 |
| 20260509114235 | 18 | 298 | 4.8 | 9.7 | 0.00 | 0.08 | 0.00 | 84 | 1008.5 |
| 20260509113710 | 19 | 307 | 4.8 | 11.3 | 0.00 | 0.18 | 0.00 | 85 | 1008.2 |
| 20260509112235 | 19 | 300 | 4.8 | 11.3 | 0.00 | 0.18 | 0.00 | 85 | 1008.2 |
| 20260509111239 | 19 | 319 | 4.8 | 11.3 | 0.00 | 0.18 | 0.00 | 84 | 1008.0 |
| 20260509110230 | 20 | 308 | 6.4 | 14.5 | 0.00 | 0.18 | 0.00 | 84 | 1007.7 |
| 20260509105229 | 20 | 309 | 8.0 | 14.5 | 0.00 | 0.18 | 0.00 | 83 | 1007.8 |
| 20260509104230 | 20 | 314 | 6.4 | 12.9 | 0.00 | 0.18 | 0.00 | 82 | 1007.7 |
| 20260509103230 | 20 | 288 | 8.0 | 14.5 | 0.00 | 0.18 | 0.00 | 80 | 1007.9 |
| 20260509102228 | 21 | 298 | 6.4 | 12.9 | 0.00 | 0.18 | 0.00 | 78 | 1007.9 |
| 20260509101231 | 21 | 350 | 4.8 | 12.9 | 0.00 | 0.18 | 0.00 | 77 | 1007.6 |
| 20260509100230 | 21 | 342 | 3.2 | 8.0 | 0.00 | 0.23 | 0.00 | 78 | 1007.7 |
| 20260509095228 | 21 | 322 | 3.2 | 6.4 | 0.00 | 0.64 | 0.00 | 76 | 1007.6 |
| 20260509094230 | 21 | 338 | 1.6 | 8.0 | 0.00 | 0.66 | 0.00 | 76 | 1007.5 |
| 20260509093224 | 21 | 26 | 0.0 | 4.8 | 0.00 | 0.66 | 0.00 | 74 | 1007.0 |
| 20260509092714 | 21 | 355 | 1.6 | 11.3 | 0.00 | 0.66 | 0.00 | 74 | 1006.6 |
| 20260509091224 | 21 | 72 | 3.2 | 17.7 | 0.00 | 0.66 | 0.00 | 74 | 1006.3 |
| 20260509090223 | 20 | 347 | 3.2 | 20.9 | 0.00 | 0.66 | 0.00 | 80 | 1005.8 |
| 20260509085223 | 20 | 207 | 8.0 | 14.5 | 0.00 | 0.66 | 0.00 | 80 | 1005.2 |
| 20260509085145 | 20 | 184 | 8.0 | 17.7 | 0.00 | 0.66 | 0.00 | 80 | 1005.0 |
| 20260509083225 | 20 | 150 | 11.3 | 25.7 | 0.00 | 0.66 | 0.00 | 79 | 1005.0 |
| 20260509082223 | 21 | 227 | 9.7 | 30.6 | 0.00 | 0.66 | 0.00 | 74 | 1005.3 |
| 20260509081224 | 22 | 301 | 0.0 | 1.6 | 0.00 | 0.66 | 0.00 | 69 | 1004.2 |
| 20260509080707 | 22 | 301 | 1.6 | 6.4 | 0.00 | 0.66 | 0.00 | 64 | 1004.7 |
| 20260509075217 | 21 | 324 | 3.2 | 6.4 | 0.00 | 0.66 | 0.00 | 71 | 1005.8 |
| 20260509074216 | 20 | 256 | 8.0 | 14.5 | 0.00 | 0.66 | 0.00 | 82 | 1006.7 |
| 20260509073219 | 20 | 248 | 8.0 | 16.1 | 0.00 | 0.66 | 0.00 | 86 | 1007.6 |
| 20260509072700 | 20 | 200 | 9.7 | 16.1 | 0.00 | 0.66 | 0.00 | 88 | 1008.0 |
| 20260509071216 | 20 | 206 | 11.3 | 16.1 | 0.00 | 0.66 | 0.00 | 89 | 1008.4 |
| 20260509071135 | 20 | 219 | 12.9 | 17.7 | 0.00 | 0.66 | 0.00 | 89 | 1008.7 |
| 20260509065216 | 20 | 231 | 11.3 | 19.3 | 0.00 | 0.76 | 0.00 | 90 | 1009.2 |
| 20260509064220 | 20 | 217 | 8.0 | 12.9 | 0.00 | 0.94 | 0.00 | 89 | 1009.6 |
| 20260509063215 | 20 | 238 | 8.0 | 14.5 | 0.00 | 1.09 | 0.00 | 89 | 1009.6 |
| 20260509062211 | 20 | 289 | 6.4 | 12.9 | 0.00 | 1.09 | 0.00 | 89 | 1009.8 |
| 20260509061211 | 20 | 275 | 4.8 | 6.4 | 0.00 | 1.09 | 0.00 | 88 | 1009.8 |
| 20260509060212 | 20 | 257 | 3.2 | 6.4 | 0.00 | 1.09 | 0.00 | 87 | 1009.7 |
| 20260509055210 | 20 | 331 | 0.0 | 4.8 | 0.00 | 1.09 | 0.00 | 87 | 1009.7 |
| 20260509054212 | 21 | 348 | 1.6 | 6.4 | 0.00 | 1.09 | 0.00 | 87 | 1009.2 |
| 20260509053209 | 21 | 355 | 1.6 | 8.0 | 0.00 | 1.09 | 0.00 | 87 | 1009.6 |
| 20260509052209 | 21 | 349 | 4.8 | 8.0 | 0.00 | 1.09 | 0.00 | 86 | 1009.8 |
| 20260509051208 | 21 | 344 | 4.8 | 9.7 | 0.00 | 1.09 | 0.00 | 86 | 1009.7 |
| 20260509050645 | 21 | 344 | 1.6 | 8.0 | 0.00 | 1.09 | 0.00 | 85 | 1009.8 |
| 20260509045209 | 21 | 163 | 1.6 | 8.0 | 0.00 | 1.09 | 1.09 | 85 | 1008.7 |
| 20260509044209 | 21 | 162 | 3.2 | 11.3 | 0.00 | 1.09 | 1.09 | 85 | 1008.4 |
| 20260509043208 | 21 | 160 | 3.2 | 11.3 | 0.00 | 1.09 | 1.09 | 85 | 1008.4 |
| 20260509042703 | 21 | 164 | 3.2 | 11.3 | 0.00 | 1.09 | 1.09 | 84 | 1008.3 |
| 20260509041209 | 21 | 144 | 1.6 | 3.2 | 0.00 | 1.09 | 1.09 | 84 | 1008.2 |
| 20260509040209 | 21 | 152 | 0.0 | 4.8 | 0.00 | 1.09 | 1.09 | 83 | 1008.3 |
| 20260509035209 | 21 | 71 | 0.0 | 4.8 | 0.00 | 1.09 | 1.09 | 82 | 1008.3 |
| 20260509034202 | 21 | 75 | 1.6 | 4.8 | 0.00 | 1.09 | 1.09 | 83 | 1008.4 |
| 20260509033202 | 21 | 76 | 1.6 | 6.4 | 0.00 | 1.09 | 1.09 | 82 | 1008.4 |
| 20260509032203 | 22 | 82 | 1.6 | 6.4 | 0.00 | 1.09 | 1.09 | 82 | 1008.1 |
| 20260509031203 | 22 | 82 | 1.6 | 9.7 | 0.00 | 1.09 | 1.09 | 81 | 1007.6 |
| 20260509030201 | 22 | 110 | 3.2 | 9.7 | 0.00 | 1.09 | 1.09 | 81 | 1007.0 |
| 20260509025202 | 22 | 148 | 1.6 | 9.7 | 0.00 | 1.09 | 1.09 | 81 | 1006.6 |
| 20260509024637 | 22 | 134 | 1.6 | 6.4 | 0.00 | 1.09 | 1.09 | 81 | 1006.7 |
| 20260509023201 | 22 | 154 | 3.2 | 9.7 | 0.00 | 1.09 | 1.09 | 80 | 1006.3 |
| 20260509022200 | 22 | 165 | 1.6 | 8.0 | 0.00 | 1.09 | 1.09 | 80 | 1006.3 |
| 20260509021204 | 22 | 165 | 3.2 | 8.0 | 0.00 | 1.09 | 1.09 | 80 | 1006.3 |
| 20260509020205 | 22 | 138 | 4.8 | 12.9 | 0.00 | 1.09 | 1.09 | 80 | 1006.0 |
| 20260509015159 | 22 | 140 | 6.4 | 17.7 | 0.00 | 1.09 | 1.09 | 79 | 1006.1 |
| 20260509014200 | 22 | 165 | 3.2 | 12.9 | 0.00 | 1.09 | 1.09 | 79 | 1006.4 |
| 20260509013158 | 22 | 167 | 1.6 | 8.0 | 0.00 | 1.09 | 1.09 | 79 | 1006.7 |
| 20260509012648 | 22 | 185 | 0.0 | 3.2 | 0.00 | 1.09 | 1.09 | 79 | 1006.7 |
| 20260509011157 | 22 | 185 | 3.2 | 11.3 | 0.00 | 1.09 | 1.09 | 79 | 1006.6 |
| 20260509010154 | 22 | 167 | 3.2 | 12.9 | 0.00 | 1.09 | 1.09 | 79 | 1006.3 |
| 20260509005152 | 22 | 169 | 8.0 | 20.9 | 0.00 | 1.09 | 1.09 | 79 | 1006.2 |
| 20260509004644 | 22 | 167 | 8.0 | 16.1 | 0.00 | 1.09 | 1.09 | 78 | 1006.1 |
| 20260509003153 | 22 | 190 | 11.3 | 20.9 | 0.00 | 1.09 | 1.09 | 78 | 1006.1 |
| 20260509002152 | 22 | 185 | 9.7 | 19.3 | 0.00 | 1.09 | 1.09 | 78 | 1006.1 |
| 20260509001150 | 22 | 202 | 11.3 | 20.9 | 0.00 | 1.09 | 1.09 | 77 | 1006.1 |
| 20260509001139 | 22 | 168 | 9.7 | 17.7 | 0.00 | 1.09 | 1.09 | 77 | 1006.2 |
| 20260508235632 | 22 | 215 | 6.4 | 12.9 | 0.00 | 1.09 | 1.09 | 77 | 1006.3 |
| 20260508234152 | 22 | 172 | 8.0 | 16.1 | 0.00 | 1.09 | 1.09 | 76 | 1006.4 |
| 20260508233151 | 22 | 184 | 9.7 | 19.3 | 0.00 | 1.09 | 1.09 | 76 | 1006.4 |
| 20260508232628 | 22 | 167 | 8.0 | 17.7 | 0.00 | 1.09 | 1.09 | 75 | 1006.4 |
| 20260508231150 | 22 | 166 | 9.7 | 17.7 | 0.00 | 1.09 | 1.09 | 75 | 1006.4 |
| 20260508230152 | 22 | 192 | 9.7 | 19.3 | 0.00 | 1.09 | 1.09 | 73 | 1006.5 |
| 20260508225150 | 23 | 152 | 6.4 | 16.1 | 0.00 | 1.09 | 1.09 | 73 | 1006.4 |
| 20260508225118 | 23 | 181 | 6.4 | 16.1 | 0.00 | 1.09 | 1.09 | 72 | 1006.5 |
| 20260508223148 | 23 | 163 | 4.8 | 14.5 | 0.00 | 1.09 | 1.09 | 71 | 1006.6 |
| 20260508222150 | 23 | 181 | 6.4 | 19.3 | 0.00 | 1.09 | 1.09 | 70 | 1006.6 |
| 20260508221629 | 23 | 132 | 4.8 | 14.5 | 0.00 | 1.09 | 1.09 | 70 | 1006.6 |
| 20260508220148 | 23 | 131 | 6.4 | 16.1 | 0.00 | 1.09 | 1.09 | 69 | 1006.5 |
| 20260508215146 | 23 | 185 | 6.4 | 16.1 | 0.00 | 1.09 | 1.09 | 68 | 1006.6 |
| 20260508214148 | 24 | 165 | 6.4 | 22.5 | 0.00 | 1.09 | 1.09 | 67 | 1006.7 |
| 20260508213144 | 23 | 163 | 4.8 | 16.1 | 0.00 | 1.09 | 1.09 | 66 | 1006.7 |